Terminal Aerodrome Forecast
Issued by NWS Detroit/Pontiac, MI

Home | Current Version | Previous Version | Text Only | Print | Product List | Glossary On
Versions: 1 2 3 4 5 6 7 8 9 10 11 12 13 14 15 16 17 18 19 20 21 22 23 24 25 26 27 28 29
000
FTUS43 KDTX 241100
TAFDTW
TAF
KDTW 241120Z 2412/2518 11003KT P6SM BKN150
     FM241400 12010KT P6SM OVC120
     FM250600 10007KT P6SM BKN050 OVC100
     FM251200 08007KT 5SM -RA BR BKN015 OVC025
     FM251600 34012KT P6SM SCT025 BKN035=

USA.gov is the U.S. government's official web portal to all federal, state and local government web resources and services.